Time;durP1;ratioP1;P1;durP2;ratioP2;P2;SDS_P1;SDS_P2;PMS_P1;PMS_P2;Temp;Humidity;BMP_temperature;BMP_pressure;BME280_temperature;BME280_humidity;BME280_pressure;Samples;Min_cycle;Max_cycle;Signal;HPM_P1;HPM_P2
2022/03/20 00:00:34;;;;;;;8.27;5.53;;;;;;;-0.94;39.19;96957.00;4926817;29;20300;-66
2022/03/20 00:03:07;;;;;;;7.60;5.10;;;;;;;-1.02;38.78;96952.88;4926730;29;20249;-66
2022/03/20 00:05:34;;;;;;;5.80;4.90;;;;;;;-1.03;38.80;96957.22;4932996;29;20247;-66
2022/03/20 00:08:01;;;;;;;5.23;4.57;;;;;;;-1.14;38.75;96948.84;4926499;29;20200;-66
2022/03/20 00:10:26;;;;;;;6.97;5.30;;;;;;;-1.13;39.05;96956.53;4926936;29;20284;-66
2022/03/20 00:12:52;;;;;;;6.50;5.57;;;;;;;-1.15;38.78;96952.28;4929693;29;20313;-65
2022/03/20 00:15:18;;;;;;;7.50;5.10;;;;;;;-1.17;39.21;96957.50;4928643;29;20232;-67
2022/03/20 00:17:43;;;;;;;5.83;4.80;;;;;;;-1.20;39.22;96952.41;4931241;29;20243;-67
2022/03/20 00:20:09;;;;;;;5.63;4.90;;;;;;;-1.37;39.45;96950.16;4928665;29;20225;-67
2022/03/20 00:22:36;;;;;;;7.13;5.63;;;;;;;-1.25;39.05;96953.41;4931699;29;20263;-67
2022/03/20 00:25:03;;;;;;;6.20;5.27;;;;;;;-1.34;38.92;96952.72;4933965;29;20236;-66
2022/03/20 00:27:28;;;;;;;8.10;5.47;;;;;;;-1.41;39.58;96950.28;4930242;29;20367;-67
2022/03/20 00:29:54;;;;;;;6.37;5.53;;;;;;;-1.43;39.42;96950.31;4946612;28;20311;-67
2022/03/20 00:32:20;;;;;;;5.63;4.83;;;;;;;-1.45;40.35;96954.66;4932131;29;20237;-67
2022/03/20 00:34:46;;;;;;;6.60;5.83;;;;;;;-1.42;40.21;96951.16;4947374;28;20395;-67
2022/03/20 00:37:12;;;;;;;5.70;4.80;;;;;;;-1.58;39.98;96943.75;4945473;29;20236;-67
2022/03/20 00:39:38;;;;;;;9.63;5.50;;;;;;;-1.42;40.44;96958.91;4932831;29;20235;-67
2022/03/20 00:42:04;;;;;;;6.77;5.20;;;;;;;-1.45;40.77;96944.31;4928752;29;20225;-67
2022/03/20 00:44:30;;;;;;;7.30;6.00;;;;;;;-1.58;40.63;96953.19;4929310;29;20330;-67
2022/03/20 00:46:56;;;;;;;7.53;5.50;;;;;;;-1.51;40.69;96954.78;4930293;29;20215;-66
2022/03/20 00:49:21;;;;;;;6.63;5.07;;;;;;;-1.54;40.90;96947.09;4929411;29;20205;-66
2022/03/20 00:51:47;;;;;;;6.00;5.33;;;;;;;-1.68;41.12;96946.53;4930878;28;20232;-67
2022/03/20 00:54:12;;;;;;;8.33;5.43;;;;;;;-1.56;41.21;96949.69;4935128;29;20220;-66
2022/03/20 00:56:38;;;;;;;6.37;4.90;;;;;;;-1.56;41.40;96951.44;4930208;29;20232;-67
2022/03/20 00:59:04;;;;;;;7.07;5.53;;;;;;;-1.50;41.45;96940.97;4936472;29;20363;-67
2022/03/20 01:01:31;;;;;;;6.80;5.63;;;;;;;-1.69;41.71;96945.66;4936319;29;20303;-66
2022/03/20 01:03:56;;;;;;;7.63;5.60;;;;;;;-1.83;42.11;96935.63;4934127;29;20233;-66
2022/03/20 01:06:23;;;;;;;9.07;5.83;;;;;;;-1.68;41.82;96946.53;4936330;29;20336;-66
2022/03/20 01:08:49;;;;;;;6.50;5.70;;;;;;;-1.77;41.82;96943.22;4935131;29;20234;-67
2022/03/20 01:11:15;;;;;;;7.87;5.97;;;;;;;-1.72;42.02;96942.31;4934389;29;20275;-67
2022/03/20 01:13:40;;;;;;;6.77;5.87;;;;;;;-1.77;41.82;96943.22;4937738;29;20213;-68
2022/03/20 01:16:06;;;;;;;7.30;5.67;;;;;;;-1.75;42.21;96947.53;4928427;29;20312;-67
2022/03/20 01:18:31;;;;;;;6.33;5.57;;;;;;;-1.79;42.18;96941.59;4937216;29;20221;-67
2022/03/20 01:20:58;;;;;;;6.70;5.60;;;;;;;-1.72;42.12;96939.72;4936473;29;20243;-67
2022/03/20 01:23:23;;;;;;;7.17;5.23;;;;;;;-1.67;41.64;96943.06;4930879;29;20960;-68
2022/03/20 01:25:50;;;;;;;6.83;5.43;;;;;;;-1.69;41.98;96939.66;4932998;29;20196;-65
2022/03/20 01:28:16;;;;;;;7.43;5.97;;;;;;;-1.88;42.23;96928.88;4930374;29;20225;-64
2022/03/20 01:30:42;;;;;;;7.77;6.23;;;;;;;-1.92;42.57;96929.81;4930705;29;20224;-65
2022/03/20 01:33:08;;;;;;;8.23;5.60;;;;;;;-1.90;42.51;96933.19;4935775;29;20221;-65
2022/03/20 01:35:35;;;;;;;6.73;5.50;;;;;;;-1.83;42.33;96922.72;4954344;28;20598;-64
2022/03/20 01:38:01;;;;;;;8.43;5.73;;;;;;;-1.94;42.41;96927.25;4933404;29;20212;-65
2022/03/20 01:40:26;;;;;;;7.87;5.70;;;;;;;-1.83;42.28;96927.03;4934526;29;20264;-67
2022/03/20 01:42:52;;;;;;;6.73;5.37;;;;;;;-1.86;42.14;96929.69;4933314;29;21001;-67
2022/03/20 01:45:20;;;;;;;6.87;5.10;;;;;;;-1.92;42.69;96932.41;4933133;29;20256;-67
2022/03/20 01:47:47;;;;;;;7.67;6.00;;;;;;;-2.07;43.00;96923.22;4931094;29;20225;-67
2022/03/20 01:50:23;;;;;;;7.80;6.03;;;;;;;-2.01;42.78;96941.13;4928635;29;20265;-66
2022/03/20 01:52:51;;;;;;;7.57;6.07;;;;;;;-1.93;43.25;96940.97;4935822;29;20231;-64
2022/03/20 01:55:18;;;;;;;8.27;6.17;;;;;;;-1.96;43.37;96941.06;4936091;29;20284;-64
2022/03/20 01:57:44;;;;;;;8.40;6.13;;;;;;;-1.92;43.47;96943.56;4930705;29;20245;-65
2022/03/20 02:00:12;;;;;;;8.67;6.60;;;;;;;-1.99;43.70;96949.69;4927461;29;20713;-65
2022/03/20 02:02:38;;;;;;;7.33;6.03;;;;;;;-2.04;43.39;96949.75;4928090;29;20597;-65
2022/03/20 02:05:06;;;;;;;9.03;6.43;;;;;;;-2.13;44.14;96949.09;4930501;28;20742;-64
2022/03/20 02:07:34;;;;;;;9.97;6.53;;;;;;;-2.03;43.72;96950.63;4928517;29;20263;-65
2022/03/20 02:10:01;;;;;;;8.37;6.70;;;;;;;-1.98;43.66;96945.38;4929142;29;20221;-64
2022/03/20 02:12:28;;;;;;;9.33;6.53;;;;;;;-1.88;43.47;96947.75;4947191;28;20236;-65
2022/03/20 02:14:53;;;;;;;10.63;6.97;;;;;;;-2.09;43.26;96948.16;4935640;29;20240;-64
2022/03/20 02:17:20;;;;;;;7.87;6.37;;;;;;;-2.25;44.47;96945.84;4947367;28;20237;-64
2022/03/20 02:19:46;;;;;;;10.03;7.00;;;;;;;-2.32;44.01;96952.00;4934556;29;20316;-64
2022/03/20 02:22:11;;;;;;;8.43;6.73;;;;;;;-2.53;44.99;96945.47;4934966;29;20321;-64
2022/03/20 02:24:42;;;;;;;7.67;6.50;;;;;;;-2.42;44.82;96952.19;4931502;29;20228;-64
2022/03/20 02:27:12;;;;;;;9.13;6.40;;;;;;;-2.48;44.93;96942.81;4951081;28;20236;-64
2022/03/20 02:29:42;;;;;;;10.80;6.50;;;;;;;-2.41;44.67;96941.81;4932215;29;20240;-64
2022/03/20 02:32:09;;;;;;;8.40;7.20;;;;;;;-2.54;44.68;96936.06;4924344;29;20279;-64
2022/03/20 02:34:36;;;;;;;10.43;6.77;;;;;;;-2.47;44.97;96937.63;4930265;29;20219;-64
2022/03/20 02:37:02;;;;;;;9.27;7.13;;;;;;;-2.63;45.07;96933.63;4930208;29;20233;-64
2022/03/20 02:39:29;;;;;;;8.33;6.77;;;;;;;-2.62;45.28;96937.91;4931844;29;20374;-64
2022/03/20 02:41:56;;;;;;;10.10;6.80;;;;;;;-2.46;45.02;96935.91;4928748;29;20230;-65
2022/03/20 02:44:52;;;;;;;7.30;6.00;;;;;;;-2.27;45.15;96934.72;4932466;29;20248;-66
2022/03/20 02:47:22;;;;;;;9.23;6.80;;;;;;;-2.30;44.50;96929.63;4947446;28;20220;-65
2022/03/20 02:49:52;;;;;;;9.43;6.80;;;;;;;-2.40;44.62;96935.81;4935466;29;20619;-65
2022/03/20 02:52:18;;;;;;;9.20;7.10;;;;;;;-2.55;45.46;96930.91;4947460;28;20224;-64
2022/03/20 02:54:44;;;;;;;8.50;6.30;;;;;;;-2.51;45.21;96932.59;4927474;29;20217;-65
2022/03/20 02:57:10;;;;;;;9.33;6.60;;;;;;;-2.39;44.93;96939.25;4928440;29;20241;-65
2022/03/20 02:59:35;;;;;;;11.30;7.13;;;;;;;-2.47;45.20;96936.78;4930343;29;20237;-65
2022/03/20 03:02:02;;;;;;;9.90;7.27;;;;;;;-2.51;45.71;96938.56;4931836;29;20787;-65
2022/03/20 03:04:27;;;;;;;8.97;7.40;;;;;;;-2.61;45.96;96931.88;4935038;29;20226;-65
2022/03/20 03:06:53;;;;;;;9.10;7.30;;;;;;;-2.70;46.38;96932.00;4932317;29;20232;-66
2022/03/20 03:12:05;;;;;;;10.80;7.00;;;;;;;-2.56;46.51;96935.22;4944531;29;20239;-65
2022/03/20 03:17:27;;;;;;;10.27;6.83;;;;;;;-2.72;46.80;96934.63;4946969;29;20231;-64
2022/03/20 03:19:54;;;;;;;11.20;7.17;;;;;;;-2.70;46.63;96940.59;4934585;29;20264;-64
2022/03/20 03:22:20;;;;;;;7.83;6.60;;;;;;;-2.86;47.25;96935.69;4936781;29;20291;-65
2022/03/20 03:24:45;;;;;;;9.67;6.97;;;;;;;-2.74;47.21;96941.50;4946539;29;20299;-65
2022/03/20 03:27:11;;;;;;;8.77;7.07;;;;;;;-2.71;46.73;96940.63;4933222;29;20316;-65
2022/03/20 03:29:36;;;;;;;9.13;7.27;;;;;;;-2.84;46.80;96937.38;4923916;29;20233;-65
2022/03/20 03:32:02;;;;;;;8.60;7.07;;;;;;;-2.96;47.49;96948.72;4928680;29;20207;-64
2022/03/20 03:37:12;;;;;;;8.80;7.20;;;;;;;-3.05;47.84;96948.00;4947119;29;20236;-61
2022/03/20 03:39:37;;;;;;;8.47;6.93;;;;;;;-3.00;48.58;96946.19;4948842;28;20221;-61
2022/03/20 03:42:03;;;;;;;10.27;7.77;;;;;;;-2.89;47.80;96945.19;4929230;29;20231;-61
2022/03/20 03:44:28;;;;;;;13.03;8.13;;;;;;;-3.01;47.70;96952.22;4927527;29;20247;-61
2022/03/20 03:46:57;;;;;;;13.00;9.53;;;;;;;-2.96;48.19;96947.88;4930445;29;20304;-61
2022/03/20 03:49:23;;;;;;;17.57;9.77;;;;;;;-2.95;47.73;96947.84;4928810;29;20216;-62
2022/03/20 03:51:48;;;;;;;13.33;9.33;;;;;;;-2.96;48.14;96951.28;4939744;28;20232;-65
2022/03/20 03:54:14;;;;;;;14.00;10.50;;;;;;;-2.88;48.23;96944.31;4939589;29;20281;-61
2022/03/20 03:56:40;;;;;;;17.03;11.40;;;;;;;-2.77;48.06;96949.28;4950741;28;20229;-61
2022/03/20 03:59:05;;;;;;;18.97;11.93;;;;;;;-2.82;48.64;96961.38;4932333;29;20248;-61
2022/03/20 04:01:31;;;;;;;20.33;12.93;;;;;;;-2.96;48.71;96956.44;4932634;29;20255;-61
2022/03/20 04:03:56;;;;;;;20.07;13.60;;;;;;;-3.13;48.93;96950.66;4930851;29;20232;-61
2022/03/20 04:06:22;;;;;;;19.80;14.57;;;;;;;-3.12;48.97;96944.66;4925654;29;20436;-63
2022/03/20 04:08:47;;;;;;;20.33;14.53;;;;;;;-3.07;48.91;96944.56;4929717;29;20612;-62
2022/03/20 04:11:13;;;;;;;19.73;14.03;;;;;;;-3.11;49.17;96949.78;4947254;28;20248;-63
2022/03/20 04:13:40;;;;;;;20.27;14.53;;;;;;;-3.04;49.40;96947.13;4932901;29;20221;-62
2022/03/20 04:16:06;;;;;;;22.17;14.17;;;;;;;-2.92;48.88;96947.78;4927262;29;20267;-60
2022/03/20 04:18:32;;;;;;;18.60;13.27;;;;;;;-3.07;49.71;96944.56;4942465;28;20288;-60
2022/03/20 04:20:58;;;;;;;16.20;11.40;;;;;;;-3.05;50.08;96943.69;4932522;29;20323;-61
2022/03/20 04:26:07;;;;;;;14.80;11.20;;;;;;;-3.39;50.94;96940.75;4944210;29;20224;-61
2022/03/20 04:28:32;;;;;;;14.60;11.10;;;;;;;-3.41;51.42;96948.47;4953288;28;20208;-61
2022/03/20 04:30:58;;;;;;;15.90;10.13;;;;;;;-3.36;52.05;96945.84;4950678;28;20229;-61
2022/03/20 04:33:25;;;;;;;16.23;10.27;;;;;;;-3.30;50.99;96950.91;4935927;29;20235;-61
2022/03/20 04:35:51;;;;;;;16.07;11.00;;;;;;;-3.34;50.92;96944.13;4927942;29;20797;-61
2022/03/20 04:38:16;;;;;;;12.63;9.83;;;;;;;-3.33;51.15;96945.81;4935355;29;20232;-61
2022/03/20 04:40:41;;;;;;;13.37;10.37;;;;;;;-3.28;51.23;96954.31;4929846;29;20213;-61
2022/03/20 04:43:07;;;;;;;15.63;10.03;;;;;;;-3.24;50.90;96958.53;4931831;29;20239;-61
2022/03/20 04:45:32;;;;;;;15.73;10.30;;;;;;;-3.18;50.66;96957.59;4938641;28;20239;-61
2022/03/20 04:58:54;;;;;;;17.80;11.30;;;;;;;-3.19;51.52;96964.47;4947219;28;20283;-61
2022/03/20 05:01:20;;;;;;;23.17;12.70;;;;;;;-3.27;51.36;96961.16;4932883;29;20228;-61
2022/03/20 05:03:47;;;;;;;18.43;13.07;;;;;;;-3.20;51.48;96961.94;4941727;29;20243;-61
2022/03/20 05:06:12;;;;;;;18.23;12.70;;;;;;;-3.11;51.19;96960.06;4932103;29;20247;-61
2022/03/20 05:08:38;;;;;;;23.80;12.50;;;;;;;-3.12;50.69;96960.09;4935262;29;20237;-61
2022/03/20 05:13:48;;;;;;;21.03;13.93;;;;;;;-3.10;50.33;96966.09;4949761;29;20279;-61
2022/03/20 05:16:14;;;;;;;20.03;14.17;;;;;;;-3.07;49.97;96960.03;4947722;28;20229;-61
2022/03/20 05:18:39;;;;;;;20.90;13.90;;;;;;;-3.02;50.55;96976.25;4946618;28;20232;-61
2022/03/20 05:21:05;;;;;;;19.07;12.07;;;;;;;-3.07;50.75;96972.88;4937065;29;20257;-61
2022/03/20 05:23:31;;;;;;;20.90;13.10;;;;;;;-2.97;50.30;96984.75;4932368;28;20236;-61
2022/03/20 05:25:57;;;;;;;16.97;12.10;;;;;;;-2.86;51.04;96980.34;4950364;28;20215;-61
2022/03/20 05:28:22;;;;;;;18.97;12.00;;;;;;;-2.74;50.18;96982.72;4930230;29;20200;-61
2022/03/20 05:30:48;;;;;;;19.40;11.93;;;;;;;-2.71;49.63;96982.66;4932299;29;20595;-62
2022/03/20 05:33:15;;;;;;;16.67;11.50;;;;;;;-2.72;50.42;96983.53;4929037;29;20232;-65
2022/03/20 05:35:42;;;;;;;17.37;11.43;;;;;;;-2.59;49.96;96985.91;4935227;29;20229;-64
2022/03/20 05:38:09;;;;;;;14.07;11.97;;;;;;;-2.39;49.81;96990.78;4935383;29;20286;-66
2022/03/20 05:40:36;;;;;;;16.50;11.63;;;;;;;-2.33;48.94;96988.06;4936592;29;20208;-66
2022/03/20 05:43:02;;;;;;;18.73;11.93;;;;;;;-2.37;49.34;96986.44;4936047;29;20332;-67
2022/03/20 05:45:28;;;;;;;14.83;11.53;;;;;;;-2.24;48.81;96983.63;4942957;28;20266;-65
2022/03/20 05:47:53;;;;;;;18.20;11.27;;;;;;;-2.12;48.17;96992.88;4925420;29;20239;-65
2022/03/20 05:50:19;;;;;;;14.40;11.10;;;;;;;-2.06;47.40;96992.78;4929255;29;20252;-65
2022/03/20 05:52:44;;;;;;;15.07;10.77;;;;;;;-2.05;47.82;96991.91;4931071;29;20209;-64
2022/03/20 05:55:10;;;;;;;14.30;11.10;;;;;;;-2.03;47.92;96994.47;4938080;29;20256;-65
2022/03/20 06:00:21;;;;;;;16.80;11.20;;;;;;;-2.09;46.97;96991.97;4951578;29;20251;-64
2022/03/20 06:02:47;;;;;;;15.37;11.27;;;;;;;-1.93;47.26;96995.13;4945744;28;20260;-63
2022/03/20 06:05:13;;;;;;;15.53;11.60;;;;;;;-1.91;46.79;96996.81;4934098;29;20225;-63
2022/03/20 06:07:46;;;;;;;18.23;12.63;;;;;;;-1.84;46.58;96993.25;4929519;29;20421;-64
2022/03/20 06:10:19;;;;;;;17.80;12.20;;;;;;;-1.75;46.99;96999.09;4930015;29;20725;-65
2022/03/20 06:12:45;;;;;;;16.17;12.27;;;;;;;-1.64;46.69;97000.59;4951768;28;20229;-65
2022/03/20 06:15:12;;;;;;;17.40;12.70;;;;;;;-1.57;46.27;97012.50;4935781;29;20421;-64
2022/03/20 06:17:46;;;;;;;15.90;12.13;;;;;;;-1.52;45.75;97006.41;4946088;28;20354;-65
2022/03/20 06:20:14;;;;;;;14.03;11.87;;;;;;;-1.52;46.43;97008.97;4931384;29;20251;-65
2022/03/20 06:22:41;;;;;;;15.00;12.47;;;;;;;-1.47;46.13;97005.47;4930325;29;20256;-64
2022/03/20 06:25:08;;;;;;;16.97;11.30;;;;;;;-1.28;45.29;97008.50;4928855;29;20228;-64
2022/03/20 06:27:51;;;;;;;16.80;11.67;;;;;;;-1.13;44.74;97003.00;4929446;29;20232;-64
2022/03/20 06:30:19;;;;;;;18.50;12.17;;;;;;;-1.10;44.18;96999.53;4950572;29;20259;-64
2022/03/20 06:32:46;;;;;;;18.40;11.37;;;;;;;-1.12;44.73;97011.63;4939302;29;20225;-64
2022/03/20 06:35:13;;;;;;;14.00;11.80;;;;;;;-1.17;44.78;97011.72;4947877;29;20228;-64
2022/03/20 06:37:43;;;;;;;18.13;11.57;;;;;;;-1.08;44.79;97012.41;4932160;29;20245;-64
2022/03/20 06:40:10;;;;;;;15.13;10.80;;;;;;;-1.02;44.01;97013.13;4941079;28;20216;-64
2022/03/20 06:42:36;;;;;;;13.70;10.90;;;;;;;-0.85;43.27;97011.94;4932820;28;20229;-65
2022/03/20 06:45:04;;;;;;;13.83;10.50;;;;;;;-0.70;42.60;97014.16;4908221;29;20224;-64
2022/03/20 06:47:32;;;;;;;13.87;10.93;;;;;;;-0.61;42.55;97016.53;4930672;29;20232;-64
2022/03/20 06:49:59;;;;;;;12.43;9.67;;;;;;;-0.51;42.31;97010.28;4913233;29;20272;-65
2022/03/20 06:52:24;;;;;;;15.83;9.20;;;;;;;-0.51;42.16;97006.81;4912686;29;20210;-65
2022/03/20 06:54:50;;;;;;;11.17;8.73;;;;;;;-0.49;40.82;97017.97;4929789;29;20774;-64
2022/03/20 06:57:20;;;;;;;11.27;8.37;;;;;;;-0.27;40.44;97016.63;4930213;29;20224;-66
2022/03/20 06:59:46;;;;;;;8.60;7.23;;;;;;;-0.29;40.08;97012.38;4947478;29;20240;-66
2022/03/20 07:02:11;;;;;;;9.67;7.00;;;;;;;-0.14;38.96;97024.91;4932577;29;20237;-65
2022/03/20 07:04:37;;;;;;;10.50;6.90;;;;;;;-0.08;37.95;97019.59;4934421;29;20228;-65
2022/03/20 07:07:03;;;;;;;6.77;6.03;;;;;;;0.16;37.13;97012.97;4933493;29;20238;-65
2022/03/20 07:09:29;;;;;;;10.33;6.50;;;;;;;0.14;36.86;97019.91;4928954;29;20251;-65
2022/03/20 07:11:54;;;;;;;9.40;6.30;;;;;;;0.14;37.04;97011.28;4927164;29;20231;-66
2022/03/20 07:14:19;;;;;;;8.20;5.93;;;;;;;0.20;36.62;97018.88;4937043;29;20228;-64
2022/03/20 07:16:45;;;;;;;7.37;6.10;;;;;;;0.23;36.15;97023.97;4932688;29;20220;-64
2022/03/20 07:19:11;;;;;;;6.87;5.87;;;;;;;0.36;36.15;97021.94;4926115;29;20438;-65
2022/03/20 07:21:36;;;;;;;9.77;5.97;;;;;;;0.43;35.64;97015.72;4930635;29;20239;-65
2022/03/20 07:24:03;;;;;;;9.07;6.20;;;;;;;0.51;36.00;97015.47;4934306;29;20229;-65
2022/03/20 07:29:31;;;;;;;9.50;5.93;;;;;;;0.50;34.93;97008.63;4947329;29;20229;-64
2022/03/20 07:32:06;;;;;;;8.00;5.93;;;;;;;0.43;35.62;97007.94;4924071;29;20208;-65
2022/03/20 07:34:32;;;;;;;8.33;6.00;;;;;;;0.47;35.24;97009.53;4927512;29;20292;-67
2022/03/20 07:36:58;;;;;;;8.30;6.77;;;;;;;0.56;34.90;97003.25;4928066;29;20299;-64
2022/03/20 07:39:24;;;;;;;7.33;6.13;;;;;;;0.82;35.12;97015.47;4930364;29;20260;-64
2022/03/20 07:41:49;;;;;;;8.63;6.27;;;;;;;0.81;34.29;97012.06;4939768;29;20256;-63
2022/03/20 07:44:15;;;;;;;8.70;6.23;;;;;;;0.94;34.56;97011.72;4935209;29;20250;-64
2022/03/20 07:46:40;;;;;;;8.10;6.53;;;;;;;0.88;34.59;97004.94;4927904;29;20220;-66
2022/03/20 07:49:07;;;;;;;7.90;5.93;;;;;;;0.95;34.15;97003.03;4946201;28;20221;-65
2022/03/20 07:51:36;;;;;;;10.13;6.30;;;;;;;1.00;34.16;97001.16;4926439;29;20287;-64
2022/03/20 07:54:03;;;;;;;10.97;6.90;;;;;;;1.05;34.28;96996.69;4927318;29;20264;-65
2022/03/20 07:56:34;;;;;;;10.60;6.90;;;;;;;0.99;34.71;96989.09;4925102;29;20382;-66
2022/03/20 07:59:00;;;;;;;8.97;6.27;;;;;;;1.09;34.14;96998.28;4931941;28;20220;-64
2022/03/20 08:01:26;;;;;;;9.43;6.70;;;;;;;1.22;33.57;96978.91;4942952;28;20267;-65
2022/03/20 08:03:51;;;;;;;11.30;6.70;;;;;;;1.22;34.25;96984.06;4926501;29;20225;-64
2022/03/20 08:06:17;;;;;;;7.53;5.70;;;;;;;1.38;32.96;96994.81;4912580;29;20307;-65
2022/03/20 08:08:43;;;;;;;7.60;6.13;;;;;;;1.36;33.14;96988.00;4943373;29;20225;-66
2022/03/20 08:11:09;;;;;;;8.37;6.23;;;;;;;1.51;33.30;96984.94;4923689;29;20209;-64
2022/03/20 08:13:35;;;;;;;12.07;5.80;;;;;;;1.57;33.20;96984.72;4924845;29;20208;-64
2022/03/20 08:16:01;;;;;;;8.10;5.97;;;;;;;1.70;32.69;96975.66;4927984;29;20252;-64
2022/03/20 08:18:27;;;;;;;7.50;6.40;;;;;;;1.74;32.58;96973.84;4929173;29;20251;-65
2022/03/20 08:20:53;;;;;;;7.37;5.70;;;;;;;1.77;32.01;96964.19;4929988;29;20706;-65
2022/03/20 08:23:19;;;;;;;8.70;6.37;;;;;;;1.84;31.76;96963.97;4928163;29;20240;-64
2022/03/20 08:25:44;;;;;;;7.13;5.40;;;;;;;1.87;32.79;96961.28;4944316;29;20205;-65
2022/03/20 08:28:11;;;;;;;11.83;6.63;;;;;;;1.97;32.23;96958.31;4944740;29;20231;-65
2022/03/20 08:30:38;;;;;;;9.97;6.43;;;;;;;2.11;32.29;96959.59;4947274;29;20359;-64
2022/03/20 08:33:03;;;;;;;8.27;6.13;;;;;;;2.03;31.74;96959.88;4928733;29;20300;-66
2022/03/20 08:35:28;;;;;;;9.63;6.20;;;;;;;2.07;31.65;96948.50;4935185;29;20251;-65
2022/03/20 08:37:55;;;;;;;28.80;25.70;;;;;;;2.16;31.79;96950.75;4929799;29;20263;-64
2022/03/20 08:40:22;;;;;;;9.43;7.57;;;;;;;2.29;31.29;96955.53;4931266;29;20212;-64
2022/03/20 08:42:52;;;;;;;8.03;6.63;;;;;;;2.22;31.67;96954.91;4927887;29;20224;-65
2022/03/20 08:45:19;;;;;;;8.73;6.40;;;;;;;2.33;31.34;96941.56;4928779;29;20229;-65
2022/03/20 08:47:44;;;;;;;9.10;6.50;;;;;;;2.26;31.24;96945.25;4930005;29;20224;-65
2022/03/20 08:50:13;;;;;;;7.53;6.13;;;;;;;2.33;31.30;96945.00;4938382;29;20231;-64
2022/03/20 08:52:39;;;;;;;8.00;5.90;;;;;;;2.41;31.38;96944.72;4949950;28;20209;-64
2022/03/20 08:55:10;;;;;;;7.87;5.90;;;;;;;2.47;31.02;96939.31;4929679;29;20232;-64
2022/03/20 08:57:52;;;;;;;6.73;5.57;;;;;;;2.44;30.55;96936.84;4925156;29;20239;-65
2022/03/20 09:00:20;;;;;;;7.83;5.60;;;;;;;2.39;30.84;96934.38;4942471;28;20252;-64
2022/03/20 09:02:48;;;;;;;8.63;5.97;;;;;;;2.59;30.72;96931.09;4940050;28;20229;-64
2022/03/20 09:05:14;;;;;;;7.23;4.30;;;;;;;2.69;29.07;96930.75;4926611;29;20229;-64
2022/03/20 09:07:42;;;;;;;4.90;4.03;;;;;;;2.77;27.86;96920.91;4921655;29;20216;-63
2022/03/20 09:10:09;;;;;;;4.33;3.77;;;;;;;2.82;27.33;96912.03;4933389;29;20225;-64
2022/03/20 09:12:35;;;;;;;4.80;4.00;;;;;;;3.01;27.16;96913.94;4933424;29;20229;-64
2022/03/20 09:15:06;;;;;;;5.90;4.53;;;;;;;3.06;26.89;96910.25;4945858;28;20244;-63
2022/03/20 09:20:17;;;;;;;6.10;4.00;;;;;;;3.26;27.06;96913.81;4949073;29;20627;-65
2022/03/20 09:22:43;;;;;;;4.37;3.67;;;;;;;3.31;25.85;96904.94;4931882;29;20221;-65
2022/03/20 09:25:09;;;;;;;4.20;3.77;;;;;;;3.38;26.20;96905.53;4931371;29;20228;-68
2022/03/20 09:27:37;;;;;;;6.10;3.80;;;;;;;3.47;25.47;96899.09;4936539;29;20239;-67
2022/03/20 09:30:04;;;;;;;4.83;3.73;;;;;;;3.77;25.75;96904.81;4932438;29;20235;-67
2022/03/20 09:32:30;;;;;;;6.30;3.80;;;;;;;3.76;25.88;96893.56;4923284;29;20299;-68
2022/03/20 09:34:55;;;;;;;5.63;3.90;;;;;;;3.93;25.51;96898.06;4935819;29;20821;-65
2022/03/20 09:37:21;;;;;;;4.20;3.80;;;;;;;3.97;25.27;96886.59;4931356;29;20253;-66
2022/03/20 09:39:46;;;;;;;6.37;3.63;;;;;;;4.11;24.94;96890.38;4929843;29;20224;-66
2022/03/20 09:42:13;;;;;;;5.27;4.30;;;;;;;4.17;24.92;96877.94;4929913;29;20233;-65
2022/03/20 09:44:40;;;;;;;4.90;3.70;;;;;;;4.28;25.22;96874.88;4929422;29;20268;-65
2022/03/20 09:47:13;;;;;;;6.83;3.83;;;;;;;4.33;24.54;96875.50;4934552;28;20216;-67
2022/03/20 09:49:40;;;;;;;4.10;3.70;;;;;;;4.46;24.92;96882.75;4929569;29;20223;-67
2022/03/20 09:52:07;;;;;;;4.60;3.70;;;;;;;4.51;24.54;96878.19;4937651;29;20247;-67
2022/03/20 09:54:33;;;;;;;5.77;3.90;;;;;;;4.67;24.55;96878.34;4929214;29;20240;-66
2022/03/20 09:57:04;;;;;;;4.50;3.67;;;;;;;4.79;24.12;96878.63;4927738;29;20232;-66
2022/03/20 09:59:30;;;;;;;3.97;3.47;;;;;;;4.82;23.73;96877.66;4943297;28;20232;-65
2022/03/20 10:02:10;;;;;;;4.50;3.40;;;;;;;4.76;23.80;96868.34;4924501;29;20235;-65
2022/03/20 10:04:55;;;;;;;4.83;4.10;;;;;;;4.97;23.71;96863.03;4934810;29;20212;-65
2022/03/20 10:07:27;;;;;;;4.87;3.90;;;;;;;5.05;23.71;96877.44;4944217;28;20259;-66
2022/03/20 10:10:13;;;;;;;4.93;4.17;;;;;;;5.19;22.82;96871.56;4925255;29;20224;-67
2022/03/20 10:12:43;;;;;;;4.40;3.80;;;;;;;5.21;22.87;96863.63;4929429;29;20228;-65
2022/03/20 10:15:09;;;;;;;5.80;4.00;;;;;;;5.31;22.96;96857.06;4943603;28;20221;-66
2022/03/20 10:17:36;;;;;;;5.23;3.97;;;;;;;5.46;22.68;96848.50;4931134;29;20245;-65
2022/03/20 10:20:25;;;;;;;5.80;4.00;;;;;;;5.60;22.30;96844.38;4933165;28;20205;-66
2022/03/20 10:22:50;;;;;;;6.30;4.00;;;;;;;5.79;22.17;96841.66;4934851;28;20263;-65
2022/03/20 10:25:17;;;;;;;5.80;4.13;;;;;;;5.87;21.91;96844.72;4932558;28;20216;-64
2022/03/20 10:27:57;;;;;;;5.80;3.87;;;;;;;6.00;21.82;96837.16;4931529;29;20224;-63
2022/03/20 10:30:23;;;;;;;4.27;3.83;;;;;;;6.05;21.80;96843.81;4930121;29;20232;-65
2022/03/20 10:32:49;;;;;;;5.87;4.07;;;;;;;6.13;21.86;96839.06;4945797;29;20235;-65
2022/03/20 10:35:17;;;;;;;4.83;4.20;;;;;;;6.20;22.01;96844.78;4934410;29;20232;-63
2022/03/20 10:37:57;;;;;;;4.60;3.93;;;;;;;6.26;21.64;96848.88;4932784;29;20212;-64
2022/03/20 10:40:26;;;;;;;5.90;4.13;;;;;;;5.58;21.98;96841.81;4945130;28;20236;-61
2022/03/20 10:43:12;;;;;;;5.27;4.23;;;;;;;5.89;21.85;96828.06;4927389;29;20237;-61
2022/03/20 10:45:49;;;;;;;5.87;4.47;;;;;;;5.59;22.31;96832.25;4946215;29;20239;-61
2022/03/20 10:48:29;;;;;;;6.50;4.33;;;;;;;6.18;22.17;96830.97;4931823;29;20260;-67
2022/03/20 10:50:55;;;;;;;9.03;4.13;;;;;;;6.37;21.95;96829.06;4934319;29;21170;-66
2022/03/20 10:53:21;;;;;;;4.33;3.93;;;;;;;6.61;21.28;96828.69;4934770;29;20409;-67
2022/03/20 10:55:46;;;;;;;5.67;4.50;;;;;;;6.50;21.41;96829.28;4936082;29;20279;-68
2022/03/20 10:58:24;;;;;;;6.93;4.30;;;;;;;6.62;21.88;96830.38;4929796;29;20236;-65
2022/03/20 11:00:50;;;;;;;4.20;3.73;;;;;;;6.89;20.81;96827.19;4928378;29;20228;-67
2022/03/20 11:03:19;;;;;;;5.33;4.03;;;;;;;6.98;21.08;96824.91;4914175;29;20229;-68
2022/03/20 11:05:46;;;;;;;5.73;4.17;;;;;;;6.97;20.96;96809.28;4902245;29;20261;-65
2022/03/20 11:08:11;;;;;;;5.20;4.23;;;;;;;7.01;21.61;96813.44;4892830;29;20297;-64
2022/03/20 11:10:37;;;;;;;4.73;3.93;;;;;;;6.96;20.69;96807.59;4897675;29;20302;-61
2022/03/20 11:13:04;;;;;;;5.53;4.13;;;;;;;7.12;20.89;96807.59;4890477;29;20633;-61
2022/03/20 11:15:32;;;;;;;8.00;4.40;;;;;;;7.41;20.69;96805.94;4888701;29;20268;-67
2022/03/20 11:17:59;;;;;;;5.77;4.50;;;;;;;7.30;20.47;96798.69;4902538;29;20317;-64
2022/03/20 11:20:29;;;;;;;4.87;4.00;;;;;;;7.46;20.99;96796.03;4904404;29;20256;-61
2022/03/20 11:22:59;;;;;;;5.30;4.30;;;;;;;7.69;20.63;96787.66;4906023;29;20244;-61
2022/03/20 11:25:25;;;;;;;6.23;4.13;;;;;;;7.74;20.74;96796.09;4907625;29;20253;-68
2022/03/20 11:27:55;;;;;;;5.17;4.20;;;;;;;7.86;20.70;96788.47;4909472;29;20257;-66
2022/03/20 11:30:27;;;;;;;6.13;3.93;;;;;;;8.07;20.29;96788.94;4910514;29;20241;-65
2022/03/20 11:32:56;;;;;;;5.33;4.77;;;;;;;7.90;20.76;96785.56;4889237;29;20237;-67
2022/03/20 11:35:28;;;;;;;6.30;4.70;;;;;;;8.24;19.73;96787.91;4896460;29;20234;-61
2022/03/20 11:37:58;;;;;;;6.93;4.83;;;;;;;8.58;19.68;96781.44;4892098;29;20226;-66
2022/03/20 11:40:26;;;;;;;7.03;4.53;;;;;;;8.77;19.34;96784.59;4908773;29;20214;-64
2022/03/20 11:43:15;;;;;;;4.70;4.20;;;;;;;8.82;19.07;96789.53;4908821;29;20225;-67
2022/03/20 11:46:01;;;;;;;5.13;4.17;;;;;;;8.85;18.63;96776.25;4893334;29;20234;-67
2022/03/20 11:48:27;;;;;;;4.70;4.30;;;;;;;8.46;19.07;96766.50;4892044;29;20237;-66
2022/03/20 11:50:52;;;;;;;5.10;4.60;;;;;;;8.24;19.30;96762.56;4905751;29;20249;-66
2022/03/20 11:53:28;;;;;;;5.73;4.53;;;;;;;8.41;19.66;96756.28;4889846;29;20379;-66
2022/03/20 11:55:54;;;;;;;5.70;4.30;;;;;;;9.07;19.27;96762.59;4888967;29;20720;-65
2022/03/20 11:58:21;;;;;;;6.07;4.30;;;;;;;9.44;18.39;96762.81;4890314;29;20221;-66
2022/03/20 12:01:06;;;;;;;4.77;4.13;;;;;;;8.90;18.47;96761.06;4906163;29;20686;-68
2022/03/20 12:04:04;;;;;;;5.33;4.10;;;;;;;9.63;18.35;96750.13;4919938;29;20237;-64
2022/03/20 12:06:30;;;;;;;4.40;4.00;;;;;;;9.89;18.08;96750.13;4921613;29;20237;-68